createdAt,value
2022-11-14T00:01:25.980Z,101679.16
2022-11-14T00:03:54.107Z,101663.31
2022-11-14T00:06:22.286Z,101661.56
2022-11-14T00:08:51.950Z,101666.88
2022-11-14T00:11:20.190Z,101665.94
2022-11-14T00:13:48.233Z,101638.66
2022-11-14T00:16:16.566Z,101658.06
2022-11-14T00:18:44.610Z,101658.03
2022-11-14T00:21:13.729Z,101658.91
2022-11-14T00:23:42.056Z,101656.25
2022-11-14T00:26:11.919Z,101656.25
2022-11-14T00:28:40.223Z,101654.50
2022-11-14T00:31:09.157Z,101654.50
2022-11-14T00:33:38.469Z,101652.78
2022-11-14T00:36:07.134Z,101651.03
2022-11-14T00:38:35.599Z,101638.66
2022-11-14T00:41:03.709Z,101635.13
2022-11-14T00:43:33.296Z,101634.28
2022-11-14T00:46:01.715Z,101643.09
2022-11-14T00:48:30.352Z,101635.13
2022-11-14T00:50:58.720Z,101644.84
2022-11-14T00:53:27.206Z,101638.63
2022-11-14T00:55:55.475Z,101628.09
2022-11-14T00:58:23.707Z,101630.72
2022-11-14T01:00:54.119Z,101631.59
2022-11-14T01:03:22.359Z,101636.91
2022-11-14T01:05:52.752Z,101631.59
2022-11-14T01:08:21.736Z,101631.59
2022-11-14T01:10:51.951Z,101622.78
2022-11-14T01:13:21.166Z,101624.56
2022-11-14T01:15:51.089Z,101610.47
2022-11-14T01:18:22.861Z,101609.59
2022-11-14T01:20:51.356Z,101615.75
2022-11-14T01:23:22.226Z,101612.25
2022-11-14T01:25:50.567Z,101606.94
2022-11-14T01:28:20.758Z,101606.94
2022-11-14T01:30:48.907Z,101608.72
2022-11-14T01:33:17.378Z,101606.97
2022-11-14T01:35:52.091Z,101603.44
2022-11-14T01:38:21.233Z,101600.78
2022-11-14T01:40:49.426Z,101598.16
2022-11-14T01:43:28.978Z,101598.13
2022-11-14T01:45:59.975Z,101597.25
2022-11-14T01:48:33.526Z,101597.25
2022-11-14T01:51:10.768Z,101594.63
2022-11-14T01:53:39.802Z,101601.63
2022-11-14T01:56:15.451Z,101592.81
2022-11-14T01:58:48.398Z,101591.09
2022-11-14T02:01:17.695Z,101578.78
2022-11-14T02:03:49.061Z,101573.50
2022-11-14T02:06:21.807Z,101582.28
2022-11-14T02:08:51.008Z,101562.94
2022-11-14T02:11:19.328Z,101582.31
2022-11-14T02:13:47.842Z,101571.72
2022-11-14T02:16:16.528Z,101580.50
2022-11-14T02:18:44.571Z,101567.28
2022-11-14T02:21:14.124Z,101577.00
2022-11-14T02:23:42.359Z,101553.25
2022-11-14T02:26:10.876Z,101565.53
2022-11-14T02:28:42.296Z,101570.81
2022-11-14T02:31:10.625Z,101558.47
2022-11-14T02:33:41.878Z,101563.75
2022-11-14T02:36:11.068Z,101571.69
2022-11-14T02:38:40.615Z,101568.16
2022-11-14T02:41:08.762Z,101569.03
2022-11-14T02:43:36.974Z,101562.88
2022-11-14T02:46:06.046Z,101568.16
2022-11-14T02:48:34.206Z,101557.59
2022-11-14T02:51:02.458Z,101552.34
2022-11-14T02:53:30.659Z,101545.28
2022-11-14T02:56:00.344Z,101547.94
2022-11-14T02:58:28.810Z,101557.56
2022-11-14T03:01:19.289Z,101555.78
2022-11-14T03:03:45.579Z,101541.75
2022-11-14T03:06:13.897Z,101543.50
2022-11-14T03:08:42.167Z,101539.97
2022-11-14T03:11:12.378Z,101541.75
2022-11-14T03:13:40.659Z,101541.75
2022-11-14T03:16:10.773Z,101542.59
2022-11-14T03:18:39.775Z,101532.06
2022-11-14T03:21:10.762Z,101530.31
2022-11-14T03:23:39.393Z,101533.81
2022-11-14T03:26:10.171Z,101521.50
2022-11-14T03:28:43.617Z,101528.53
2022-11-14T03:31:13.862Z,101517.09
2022-11-14T03:33:42.333Z,101510.06
2022-11-14T03:36:11.218Z,101503.91
2022-11-14T03:38:40.240Z,101509.19
2022-11-14T03:41:08.786Z,101513.56
2022-11-14T03:43:37.240Z,101515.31
2022-11-14T03:46:09.949Z,101506.53
2022-11-14T03:48:39.861Z,101502.13
2022-11-14T03:51:08.665Z,101503.00
2022-11-14T03:53:39.203Z,101504.78
2022-11-14T03:56:10.183Z,101501.22
2022-11-14T03:58:41.428Z,101489.81
2022-11-14T04:01:11.175Z,101476.59
2022-11-14T04:03:39.617Z,101477.47
2022-11-14T04:06:08.382Z,101481.00
2022-11-14T04:08:38.807Z,101486.28
2022-11-14T04:11:07.132Z,101474.84
2022-11-14T04:13:35.686Z,101490.69
2022-11-14T04:16:04.665Z,101485.41
2022-11-14T04:18:34.105Z,101462.53
2022-11-14T04:21:02.307Z,101488.06
2022-11-14T04:23:30.762Z,101481.03
2022-11-14T04:25:58.864Z,101480.16
2022-11-14T04:28:27.422Z,101464.34
2022-11-14T04:30:55.985Z,101466.13
2022-11-14T04:33:24.005Z,101453.78
2022-11-14T04:35:53.607Z,101478.38
2022-11-14T04:38:22.018Z,101466.06
2022-11-14T04:40:51.998Z,101470.47
2022-11-14T04:43:21.213Z,101455.50
2022-11-14T04:45:49.425Z,101460.78
2022-11-14T04:48:17.714Z,101466.94
2022-11-14T04:50:47.397Z,101467.78
2022-11-14T04:53:17.031Z,101464.22
2022-11-14T04:55:46.348Z,101473.03
2022-11-14T04:58:14.476Z,101465.97
2022-11-14T05:00:43.234Z,101455.38
2022-11-14T05:03:11.333Z,101467.75
2022-11-14T05:05:42.370Z,101463.38
2022-11-14T05:08:10.831Z,101462.44
2022-11-14T05:10:44.937Z,101457.19
2022-11-14T05:13:15.362Z,101453.66
2022-11-14T05:15:43.443Z,101446.63
2022-11-14T05:18:11.787Z,101458.06
2022-11-14T05:20:40.170Z,101453.66
2022-11-14T05:23:08.346Z,101457.19
2022-11-14T05:25:36.878Z,101451.91
2022-11-14T05:28:08.229Z,101446.63
2022-11-14T05:30:36.571Z,101456.25
2022-11-14T05:33:04.847Z,101450.13
2022-11-14T05:35:33.060Z,101461.53
2022-11-14T05:38:02.494Z,101453.56
2022-11-14T05:40:31.103Z,101452.69
2022-11-14T05:42:59.266Z,101458.84
2022-11-14T05:45:29.143Z,101462.34
2022-11-14T05:47:57.351Z,101457.09
2022-11-14T05:50:25.798Z,101443.09
2022-11-14T05:52:53.968Z,101443.09
2022-11-14T05:55:24.998Z,101450.09
2022-11-14T05:57:53.574Z,101449.25
2022-11-14T06:00:21.709Z,101452.69
2022-11-14T06:02:53.934Z,101457.00
2022-11-14T06:05:22.242Z,101449.22
2022-11-14T06:07:57.544Z,101452.63
2022-11-14T06:10:26.184Z,101447.41
2022-11-14T06:12:54.299Z,101450.00
2022-11-14T06:15:22.527Z,101455.28
2022-11-14T06:17:53.823Z,101448.19
2022-11-14T06:20:22.547Z,101455.28
2022-11-14T06:22:53.138Z,101454.38
2022-11-14T06:25:21.570Z,101456.13
2022-11-14T06:27:49.575Z,101459.72
2022-11-14T06:30:17.901Z,101444.81
2022-11-14T06:32:46.186Z,101453.53
2022-11-14T06:35:16.167Z,101458.81
2022-11-14T06:37:44.396Z,101469.28
2022-11-14T06:40:13.066Z,101472.72
2022-11-14T06:42:41.152Z,101480.72
2022-11-14T06:45:10.423Z,101485.00
2022-11-14T06:47:38.739Z,101484.13
2022-11-14T06:50:08.028Z,101491.13
2022-11-14T06:52:37.609Z,101490.28
2022-11-14T06:55:06.637Z,101506.94
2022-11-14T06:57:34.745Z,101499.00
2022-11-14T07:00:03.225Z,101502.53
2022-11-14T07:02:31.471Z,101506.94
2022-11-14T07:04:59.884Z,101506.91
2022-11-14T07:07:28.954Z,101498.19
2022-11-14T07:09:58.992Z,101499.00
2022-11-14T07:12:27.124Z,101500.78
2022-11-14T07:14:55.434Z,101493.69
2022-11-14T07:17:28.429Z,101495.44
2022-11-14T07:19:59.051Z,101497.13
2022-11-14T07:22:27.505Z,101490.97
2022-11-14T07:24:55.718Z,101504.19
2022-11-14T07:27:25.280Z,101486.66
2022-11-14T07:29:53.579Z,101507.66
2022-11-14T07:32:22.115Z,101502.41
2022-11-14T07:34:50.479Z,101503.25
2022-11-14T07:37:18.708Z,101498.84
2022-11-14T07:39:47.237Z,101497.06
2022-11-14T07:42:15.488Z,101490.09
2022-11-14T07:44:44.976Z,101497.03
2022-11-14T07:47:13.085Z,101495.31
2022-11-14T07:49:41.310Z,101482.06
2022-11-14T07:52:09.698Z,101477.75
2022-11-14T07:54:38.573Z,101460.19
2022-11-14T07:57:07.000Z,101474.34
2022-11-14T07:59:35.507Z,101468.22
2022-11-14T08:02:06.574Z,101479.53
2022-11-14T08:04:34.857Z,101464.63
2022-11-14T08:07:03.134Z,101470.72
2022-11-14T08:09:31.400Z,101469.91
2022-11-14T08:11:59.837Z,101463.78
2022-11-14T08:14:28.317Z,101468.16
2022-11-14T08:16:56.356Z,101469.94
2022-11-14T08:19:26.076Z,101452.41
2022-11-14T08:21:54.320Z,101467.41
2022-11-14T08:24:22.419Z,101467.41
2022-11-14T08:26:50.853Z,101461.19
2022-11-14T08:29:19.266Z,101470.84
2022-11-14T08:31:47.871Z,101469.00
2022-11-14T08:34:16.089Z,101460.19
2022-11-14T08:36:45.829Z,101461.94
2022-11-14T08:39:13.931Z,101462.03
2022-11-14T08:41:42.175Z,101453.28
2022-11-14T08:44:12.939Z,101449.75
2022-11-14T08:46:41.058Z,101460.28
2022-11-14T08:49:09.278Z,101447.97
2022-11-14T08:51:37.863Z,101454.16
2022-11-14T08:54:07.849Z,101451.63
2022-11-14T08:56:36.020Z,101442.84
2022-11-14T08:59:05.545Z,101439.28
2022-11-14T09:01:34.033Z,101447.16
2022-11-14T09:04:03.055Z,101449.81
2022-11-14T09:06:31.597Z,101448.03
2022-11-14T09:08:59.870Z,101452.47
2022-11-14T09:11:29.657Z,101452.41
2022-11-14T09:13:57.909Z,101448.03
2022-11-14T09:16:25.984Z,101441.06
2022-11-14T09:18:54.311Z,101438.31
2022-11-14T09:21:22.629Z,101439.22
2022-11-14T09:23:50.918Z,101451.41
2022-11-14T09:26:19.910Z,101438.19
2022-11-14T09:28:49.879Z,101441.81
2022-11-14T09:31:17.937Z,101453.25
2022-11-14T09:33:46.300Z,101446.25
2022-11-14T09:36:16.043Z,101442.84
2022-11-14T09:38:44.681Z,101439.28
2022-11-14T09:41:25.200Z,101421.72
2022-11-14T09:44:24.943Z,101434.00
2022-11-14T09:46:57.562Z,101434.88
2022-11-14T09:49:33.225Z,101435.81
2022-11-14T09:52:11.067Z,101434.88
2022-11-14T09:54:45.808Z,101440.94
2022-11-14T09:57:18.839Z,101433.91
2022-11-14T09:59:49.119Z,101426.94
2022-11-14T10:02:38.608Z,101432.13
2022-11-14T10:05:40.404Z,101411.06
2022-11-14T10:08:33.582Z,101418.19
2022-11-14T10:11:09.084Z,101408.53
2022-11-14T10:13:53.558Z,101414.75
2022-11-14T10:16:29.868Z,101399.84
2022-11-14T10:19:11.233Z,101384.06
2022-11-14T10:21:51.830Z,101394.56
2022-11-14T10:24:34.830Z,101384.94
2022-11-14T10:27:05.253Z,101385.88
2022-11-14T10:29:53.791Z,101383.22
2022-11-14T10:32:35.295Z,101372.66
2022-11-14T10:35:10.519Z,101370.91
2022-11-14T10:37:43.571Z,101379.66
2022-11-14T10:40:19.362Z,101371.78
2022-11-14T10:42:51.480Z,101340.09
2022-11-14T10:45:26.478Z,101356.84
2022-11-14T10:47:59.469Z,101363.84
2022-11-14T10:50:42.350Z,101362.09
2022-11-14T10:53:30.676Z,101360.31
2022-11-14T10:56:05.042Z,101361.28
2022-11-14T10:58:47.083Z,101351.59
2022-11-14T11:01:36.478Z,101335.78
2022-11-14T11:04:22.084Z,101348.09
2022-11-14T11:06:51.987Z,101339.38
2022-11-14T11:09:45.073Z,101341.13
2022-11-14T11:12:18.128Z,101335.88
2022-11-14T11:14:47.533Z,101330.66
2022-11-14T11:17:21.867Z,101322.75
2022-11-14T11:19:51.707Z,101319.22
2022-11-14T11:22:38.031Z,101320.13
2022-11-14T11:25:24.860Z,101315.75
2022-11-14T11:28:07.672Z,101311.34
2022-11-14T11:30:35.777Z,101307.88
2022-11-14T11:33:18.611Z,101304.34
2022-11-14T11:35:51.443Z,101297.31
2022-11-14T11:38:21.392Z,101302.59
2022-11-14T11:40:55.442Z,101297.31
2022-11-14T11:43:50.303Z,101296.47
2022-11-14T11:46:28.714Z,101285.06
2022-11-14T11:49:04.282Z,101286.81
2022-11-14T11:51:37.903Z,101294.72
2022-11-14T11:54:15.207Z,101288.53
2022-11-14T11:56:46.748Z,101281.50
2022-11-14T11:59:28.360Z,101291.19
2022-11-14T12:01:56.603Z,101292.06
2022-11-14T12:04:25.859Z,101280.63
2022-11-14T12:07:00.323Z,101275.41
2022-11-14T12:10:03.663Z,101273.63
2022-11-14T12:12:29.796Z,101274.50
2022-11-14T12:15:09.998Z,101270.97
2022-11-14T12:18:03.771Z,101262.22
2022-11-14T12:20:54.423Z,101261.31
2022-11-14T12:23:50.093Z,101259.59
2022-11-14T12:26:43.108Z,101270.09
2022-11-14T12:29:36.930Z,101260.44
2022-11-14T12:32:08.418Z,101256.94
2022-11-14T12:34:41.759Z,101266.63
2022-11-14T12:37:16.115Z,101256.06
2022-11-14T12:39:57.774Z,101264.84
2022-11-14T12:42:26.608Z,101253.41
2022-11-14T12:44:54.736Z,101255.19
2022-11-14T12:47:24.806Z,101255.19
2022-11-14T12:50:29.446Z,101253.44
2022-11-14T12:52:57.600Z,101258.72
2022-11-14T12:56:09.142Z,101249.91
2022-11-14T12:59:00.643Z,101255.19
2022-11-14T13:01:48.972Z,101242.91
2022-11-14T13:04:32.334Z,101243.75
2022-11-14T13:07:20.813Z,101245.50
2022-11-14T13:10:04.241Z,101230.59
2022-11-14T13:12:53.082Z,101237.63
2022-11-14T13:15:49.236Z,101244.63
2022-11-14T13:18:43.048Z,101244.63
2022-11-14T13:21:45.447Z,101247.28
2022-11-14T13:24:17.133Z,101241.13
2022-11-14T13:26:47.428Z,101248.16
2022-11-14T13:29:54.830Z,101247.28
2022-11-14T13:32:56.043Z,101241.13
2022-11-14T13:35:38.294Z,101241.13
2022-11-14T13:38:37.012Z,101225.34
2022-11-14T13:41:24.469Z,101241.13
2022-11-14T13:44:07.905Z,101242.84
2022-11-14T13:46:53.314Z,101232.34
2022-11-14T13:49:41.010Z,101234.97
2022-11-14T13:52:09.299Z,101227.94
2022-11-14T13:54:37.458Z,101228.81
2022-11-14T13:57:16.842Z,101228.81
2022-11-14T13:59:56.432Z,101220.91
2022-11-14T14:02:55.690Z,101204.22
2022-11-14T14:05:35.929Z,101204.22
2022-11-14T14:08:19.999Z,101213.00
2022-11-14T14:11:02.597Z,101206.00
2022-11-14T14:13:46.171Z,101194.56
2022-11-14T14:16:24.195Z,101204.25
2022-11-14T14:19:07.166Z,101204.25
2022-11-14T14:21:45.783Z,101191.97
2022-11-14T14:24:41.519Z,101190.16
2022-11-14T14:27:20.380Z,101175.28
2022-11-14T14:29:58.344Z,101187.59
2022-11-14T14:32:26.624Z,101183.16
2022-11-14T14:34:57.163Z,101176.16
2022-11-14T14:37:29.036Z,101174.41
2022-11-14T14:39:58.626Z,101175.25
2022-11-14T14:42:32.204Z,101169.13
2022-11-14T14:45:04.879Z,101153.31
2022-11-14T14:47:39.438Z,101160.34
2022-11-14T14:50:29.670Z,101150.72
2022-11-14T14:53:00.827Z,101155.09
2022-11-14T14:55:32.501Z,101147.19
2022-11-14T14:58:21.004Z,101139.25
2022-11-14T15:00:54.452Z,101141.03
2022-11-14T15:03:24.154Z,101153.31
2022-11-14T15:05:59.917Z,101127.00
2022-11-14T15:08:31.508Z,101141.06
2022-11-14T15:11:02.033Z,101142.78
2022-11-14T15:13:32.232Z,101136.66
2022-11-14T15:16:00.611Z,101114.72
2022-11-14T15:18:32.349Z,101134.91
2022-11-14T15:21:09.356Z,101128.72
2022-11-14T15:23:40.112Z,101131.38
2022-11-14T15:26:15.738Z,101132.25
2022-11-14T15:28:44.164Z,101135.78
2022-11-14T15:31:19.392Z,101139.28
2022-11-14T15:33:47.926Z,101135.78
2022-11-14T15:36:18.313Z,101114.69
2022-11-14T15:39:09.429Z,101123.47
2022-11-14T15:41:39.948Z,101127.00
2022-11-14T15:44:29.761Z,101119.97
2022-11-14T15:46:58.060Z,101114.72
2022-11-14T15:49:28.916Z,101128.75
2022-11-14T15:51:59.091Z,101115.56
2022-11-14T15:54:33.671Z,101122.63
2022-11-14T15:57:03.808Z,101119.97
2022-11-14T15:59:32.873Z,101121.72
2022-11-14T16:02:05.738Z,101116.47
2022-11-14T16:04:35.783Z,101127.00
2022-11-14T16:07:04.358Z,101111.22
2022-11-14T16:09:33.932Z,101114.69
2022-11-14T16:12:02.104Z,101108.56
2022-11-14T16:14:30.168Z,101105.94
2022-11-14T16:16:58.412Z,101112.94
2022-11-14T16:19:26.775Z,101109.44
2022-11-14T16:21:55.060Z,101107.69
2022-11-14T16:24:27.547Z,101104.16
2022-11-14T16:26:59.657Z,101107.69
2022-11-14T16:29:28.970Z,101112.94
2022-11-14T16:31:57.214Z,101111.22
2022-11-14T16:34:27.338Z,101114.72
2022-11-14T16:37:00.299Z,101104.19
2022-11-14T16:39:28.739Z,101111.22
2022-11-14T16:42:03.172Z,101105.06
2022-11-14T16:44:35.801Z,101109.47
2022-11-14T16:47:08.677Z,101101.53
2022-11-14T16:49:37.259Z,101104.19
2022-11-14T16:52:08.821Z,101099.78
2022-11-14T16:54:37.180Z,101104.19
2022-11-14T16:57:06.925Z,101097.16
2022-11-14T16:59:35.086Z,101086.63
2022-11-14T17:02:03.836Z,101090.13
2022-11-14T17:04:32.189Z,101084.00
2022-11-14T17:07:00.557Z,101083.09
2022-11-14T17:09:29.863Z,101081.38
2022-11-14T17:11:58.254Z,101092.78
2022-11-14T17:14:27.892Z,101076.97
2022-11-14T17:16:56.230Z,101086.63
2022-11-14T17:19:24.551Z,101082.25
2022-11-14T17:21:52.961Z,101083.09
2022-11-14T17:24:21.290Z,101078.72
2022-11-14T17:26:50.007Z,101091.88
2022-11-14T17:29:18.024Z,101082.22
2022-11-14T17:31:47.636Z,101079.63
2022-11-14T17:34:15.792Z,101079.59
2022-11-14T17:36:43.851Z,101074.31
2022-11-14T17:39:12.093Z,101076.94
2022-11-14T17:41:40.354Z,101076.09
2022-11-14T17:44:09.898Z,101077.84
2022-11-14T17:46:38.356Z,101069.09
2022-11-14T17:49:08.013Z,101067.31
2022-11-14T17:51:36.399Z,101072.59
2022-11-14T17:54:04.824Z,101068.22
2022-11-14T17:56:33.181Z,101065.56
2022-11-14T17:59:01.326Z,101067.31
2022-11-14T18:01:31.669Z,101055.91
2022-11-14T18:04:05.495Z,101061.19
2022-11-14T18:06:35.816Z,101062.94
2022-11-14T18:09:05.241Z,101047.97
2022-11-14T18:11:33.708Z,101044.50
2022-11-14T18:14:05.286Z,101044.47
2022-11-14T18:16:57.498Z,101051.50
2022-11-14T18:19:21.799Z,101042.75
2022-11-14T18:21:53.899Z,101040.97
2022-11-14T18:24:24.708Z,101037.50
2022-11-14T18:26:56.104Z,101039.22
2022-11-14T18:29:24.296Z,101037.44
2022-11-14T18:31:52.492Z,101046.22
2022-11-14T18:34:20.837Z,101048.00
2022-11-14T18:36:50.319Z,101053.28
2022-11-14T18:39:18.483Z,101053.28
2022-11-14T18:41:46.922Z,101053.28
2022-11-14T18:44:15.175Z,101035.72
2022-11-14T18:46:43.251Z,101040.09
2022-11-14T18:49:11.734Z,101014.69
2022-11-14T18:51:42.261Z,101056.78
2022-11-14T18:54:14.785Z,101053.28
2022-11-14T18:56:43.139Z,101055.03
2022-11-14T18:59:11.152Z,101040.09
2022-11-14T19:01:39.569Z,101038.38
2022-11-14T19:04:12.854Z,101039.22
2022-11-14T19:06:42.152Z,101030.47
2022-11-14T19:09:16.022Z,101032.25
2022-11-14T19:12:02.221Z,101026.94
2022-11-14T19:14:30.444Z,101021.72
2022-11-14T19:16:59.595Z,101030.47
2022-11-14T19:19:28.047Z,101015.56
2022-11-14T19:21:56.334Z,101016.44
2022-11-14T19:24:25.973Z,101016.44
2022-11-14T19:26:54.287Z,101003.31
2022-11-14T19:29:22.517Z,101025.19
2022-11-14T19:31:50.879Z,101011.16
2022-11-14T19:34:19.029Z,101009.41
2022-11-14T19:36:59.891Z,100991.84
2022-11-14T19:39:30.660Z,100990.13
2022-11-14T19:41:58.986Z,100990.13
2022-11-14T19:44:27.488Z,101003.28
2022-11-14T19:46:55.744Z,100994.50
2022-11-14T19:49:23.816Z,100995.41
2022-11-14T19:51:52.357Z,100997.16
2022-11-14T19:54:20.766Z,100985.72
2022-11-14T19:56:50.446Z,100993.63
2022-11-14T19:59:24.007Z,100984.00
2022-11-14T20:01:55.610Z,100988.38
2022-11-14T20:04:25.329Z,100985.75
2022-11-14T20:06:53.656Z,100989.28
2022-11-14T20:09:21.863Z,100991.88
2022-11-14T20:11:51.425Z,100983.13
2022-11-14T20:14:19.720Z,100981.38
2022-11-14T20:16:47.975Z,100984.84
2022-11-14T20:19:16.277Z,100977.84
2022-11-14T20:21:44.453Z,100972.56
2022-11-14T20:24:14.532Z,100970.78
2022-11-14T20:26:42.601Z,100982.25
2022-11-14T20:29:12.224Z,100981.38
2022-11-14T20:31:40.346Z,100983.09
2022-11-14T20:34:08.440Z,100976.09
2022-11-14T20:37:08.752Z,100988.41
2022-11-14T20:39:24.790Z,100998.91
2022-11-14T20:41:52.884Z,100996.28
2022-11-14T20:44:22.364Z,100997.16
2022-11-14T20:46:50.659Z,101001.53
2022-11-14T20:49:18.926Z,100994.50
2022-11-14T20:51:47.015Z,100990.13
2022-11-14T20:54:15.132Z,101005.06
2022-11-14T20:56:43.307Z,100997.19
2022-11-14T20:59:11.492Z,100985.78
2022-11-14T21:01:43.938Z,100981.38
2022-11-14T21:04:12.697Z,100978.75
2022-11-14T21:06:41.782Z,100972.59
2022-11-14T21:09:10.705Z,100981.34
2022-11-14T21:11:38.836Z,100969.09
2022-11-14T21:14:09.237Z,100963.81
2022-11-14T21:16:40.011Z,100969.94
2022-11-14T21:19:09.841Z,100959.44
2022-11-14T21:21:39.146Z,100960.31
2022-11-14T21:24:08.328Z,100955.06
2022-11-14T21:26:40.032Z,100949.78
2022-11-14T21:29:11.286Z,100949.78
2022-11-14T21:31:41.340Z,100955.91
2022-11-14T21:34:13.075Z,100950.66
2022-11-14T21:36:46.480Z,100950.66
2022-11-14T21:39:16.289Z,100955.03
2022-11-14T21:41:48.509Z,100953.28
2022-11-14T21:44:18.163Z,100955.06
2022-11-14T21:46:48.755Z,100946.25
2022-11-14T21:49:18.586Z,100948.00
2022-11-14T21:51:48.430Z,100942.78
2022-11-14T21:54:16.763Z,100951.53
2022-11-14T21:56:44.850Z,100948.03
2022-11-14T21:59:16.074Z,100944.50
2022-11-14T22:02:04.233Z,100944.53
2022-11-14T22:04:34.253Z,100945.41
2022-11-14T22:07:04.254Z,100946.28
2022-11-14T22:09:33.089Z,100941.03
2022-11-14T22:12:01.861Z,100938.38
2022-11-14T22:14:30.772Z,100941.03
2022-11-14T22:16:59.163Z,100934.00
2022-11-14T22:19:27.689Z,100928.75
2022-11-14T22:21:57.465Z,100918.22
2022-11-14T22:24:25.693Z,100918.22
2022-11-14T22:26:54.045Z,100920.88
2022-11-14T22:29:22.239Z,100905.91
2022-11-14T22:31:53.051Z,100901.53
2022-11-14T22:34:21.365Z,100898.94
2022-11-14T22:36:49.754Z,100901.56
2022-11-14T22:39:19.373Z,100907.72
2022-11-14T22:41:48.181Z,100903.31
2022-11-14T22:44:16.204Z,100911.22
2022-11-14T22:46:44.326Z,100898.03
2022-11-14T22:49:16.045Z,100903.34
2022-11-14T22:51:46.523Z,100902.47
2022-11-14T22:54:15.121Z,100897.16
2022-11-14T22:56:44.595Z,100890.16
2022-11-14T22:59:12.541Z,100888.41
2022-11-14T23:01:41.011Z,100884.03
2022-11-14T23:04:10.781Z,100893.69
2022-11-14T23:06:39.073Z,100881.44
2022-11-14T23:09:08.202Z,100884.94
2022-11-14T23:11:36.354Z,100873.53
2022-11-14T23:14:05.880Z,100873.53
2022-11-14T23:16:35.166Z,100876.19
2022-11-14T23:19:05.090Z,100872.69
2022-11-14T23:21:38.446Z,100876.19
2022-11-14T23:24:08.671Z,100874.41
2022-11-14T23:26:36.851Z,100875.28
2022-11-14T23:29:07.022Z,100867.38
2022-11-14T23:31:35.418Z,100863.00
2022-11-14T23:34:03.558Z,100869.13
2022-11-14T23:36:31.978Z,100876.19
2022-11-14T23:39:00.220Z,100865.66
2022-11-14T23:41:28.377Z,100870.91
2022-11-14T23:43:56.546Z,100868.22
2022-11-14T23:46:26.834Z,100869.16
2022-11-14T23:48:55.147Z,100854.25
2022-11-14T23:51:23.242Z,100862.97
2022-11-14T23:53:52.046Z,100857.72
2022-11-14T23:56:20.428Z,100853.31
2022-11-14T23:58:48.707Z,100851.56
